createdAt,value
2018-02-11T00:01:03.798Z,67.30
2018-02-11T00:03:31.266Z,67.30
2018-02-11T00:05:59.499Z,67.60
2018-02-11T00:08:26.967Z,67.50
2018-02-11T00:10:54.421Z,66.80
2018-02-11T00:13:21.885Z,67.60
2018-02-11T00:15:49.350Z,67.20
2018-02-11T00:18:16.825Z,67.20
2018-02-11T00:20:44.282Z,68.00
2018-02-11T00:23:11.735Z,67.70
2018-02-11T00:25:39.204Z,67.00
2018-02-11T00:28:06.674Z,67.00
2018-02-11T00:30:34.173Z,66.60
2018-02-11T00:33:01.685Z,66.90
2018-02-11T00:35:29.143Z,67.40
2018-02-11T00:38:02.366Z,67.40
2018-02-11T00:40:30.606Z,67.80
2018-02-11T00:42:58.069Z,67.80
2018-02-11T00:45:25.540Z,67.50
2018-02-11T00:47:53.001Z,67.60
2018-02-11T00:50:21.231Z,67.50
2018-02-11T00:52:48.702Z,67.10
2018-02-11T00:55:16.160Z,66.80
2018-02-11T00:57:43.654Z,67.40
2018-02-11T01:00:11.876Z,67.50
2018-02-11T01:02:39.338Z,67.50
2018-02-11T01:05:06.813Z,66.90
2018-02-11T01:07:34.261Z,67.40
2018-02-11T01:10:02.495Z,67.50
2018-02-11T01:12:29.948Z,67.50
2018-02-11T01:14:57.413Z,68.00
2018-02-11T01:17:24.877Z,67.10
2018-02-11T01:19:52.340Z,66.70
2018-02-11T01:22:19.813Z,66.90
2018-02-11T01:24:47.282Z,67.40
2018-02-11T01:27:15.117Z,67.60
2018-02-11T01:29:42.586Z,67.10
2018-02-11T01:32:10.046Z,66.90
2018-02-11T01:34:37.513Z,67.00
2018-02-11T01:37:04.968Z,67.20
2018-02-11T01:39:32.430Z,67.50
2018-02-11T01:42:00.673Z,67.60
2018-02-11T01:44:28.122Z,68.50
2018-02-11T01:46:56.002Z,67.90
2018-02-11T01:49:23.459Z,66.70
2018-02-11T01:51:50.921Z,67.10
2018-02-11T01:54:18.383Z,67.60
2018-02-11T01:56:45.850Z,67.40
2018-02-11T01:59:14.074Z,67.60
2018-02-11T02:01:42.302Z,67.50
2018-02-11T02:04:09.761Z,67.50
2018-02-11T02:06:37.224Z,67.30
2018-02-11T02:09:04.690Z,67.30
2018-02-11T02:11:32.146Z,67.00
2018-02-11T02:13:59.609Z,67.60
2018-02-11T02:16:27.114Z,67.80
2018-02-11T02:18:54.570Z,67.60
2018-02-11T02:21:22.034Z,67.80
2018-02-11T02:23:49.505Z,68.00
2018-02-11T02:26:16.978Z,68.00
2018-02-11T02:28:44.438Z,68.10
2018-02-11T02:31:11.907Z,68.30
2018-02-11T02:33:39.374Z,68.30
2018-02-11T02:36:07.604Z,68.60
2018-02-11T02:38:35.087Z,68.60
2018-02-11T02:41:02.560Z,69.10
2018-02-11T02:43:30.010Z,68.60
2018-02-11T02:45:57.479Z,68.50
2018-02-11T02:48:24.933Z,68.10
2018-02-11T02:50:52.396Z,69.10
2018-02-11T02:53:19.895Z,68.00
2018-02-11T02:55:47.400Z,68.50
2018-02-11T02:58:14.852Z,68.70
2018-02-11T03:00:42.307Z,68.70
2018-02-11T03:03:09.783Z,68.00
2018-02-11T03:05:37.247Z,67.90
2018-02-11T03:08:05.767Z,68.20
2018-02-11T03:10:33.226Z,68.20
2018-02-11T03:13:00.688Z,68.80
2018-02-11T03:15:29.165Z,68.70
2018-02-11T03:17:56.617Z,69.00
2018-02-11T03:20:24.110Z,68.70
2018-02-11T03:22:51.573Z,68.80
2018-02-11T03:25:19.045Z,68.80
2018-02-11T03:27:46.514Z,68.80
2018-02-11T03:30:13.978Z,68.40
2018-02-11T03:32:41.450Z,69.10
2018-02-11T03:35:08.905Z,68.70
2018-02-11T03:37:36.371Z,68.70
2018-02-11T03:40:04.137Z,68.40
2018-02-11T03:42:31.609Z,68.90
2018-02-11T03:44:59.078Z,68.80
2018-02-11T03:47:26.530Z,69.20
2018-02-11T03:49:53.996Z,69.50
2018-02-11T03:52:21.452Z,69.70
2018-02-11T03:54:48.923Z,69.20
2018-02-11T03:57:16.391Z,69.10
2018-02-11T03:59:43.842Z,69.00
2018-02-11T04:02:11.304Z,69.00
2018-02-11T04:04:38.766Z,68.30
2018-02-11T04:07:06.231Z,68.90
2018-02-11T04:09:34.467Z,68.20
2018-02-11T04:12:01.921Z,68.20
2018-02-11T04:14:29.397Z,68.40
2018-02-11T04:16:57.322Z,68.80
2018-02-11T04:19:24.791Z,68.10
2018-02-11T04:21:53.022Z,68.20
2018-02-11T04:24:21.277Z,68.00
2018-02-11T04:26:48.738Z,68.00
2018-02-11T04:29:16.966Z,68.60
2018-02-11T04:31:44.429Z,68.50
2018-02-11T04:34:11.897Z,68.70
2018-02-11T04:36:39.352Z,68.70
2018-02-11T04:39:06.822Z,68.60
2018-02-11T04:41:34.273Z,68.30
2018-02-11T04:44:01.738Z,68.10
2018-02-11T04:46:29.211Z,68.20
2018-02-11T04:48:56.693Z,67.50
2018-02-11T04:51:24.918Z,67.70
2018-02-11T04:53:52.375Z,67.70
2018-02-11T04:56:19.846Z,68.20
2018-02-11T04:58:47.310Z,68.70
2018-02-11T05:01:14.760Z,68.90
2018-02-11T05:03:42.230Z,68.60
2018-02-11T05:06:09.686Z,68.30
2018-02-11T05:08:37.153Z,68.90
2018-02-11T05:11:04.617Z,69.40
2018-02-11T05:13:32.834Z,69.80
2018-02-11T05:16:00.306Z,69.70
2018-02-11T05:18:27.763Z,69.20
2018-02-11T05:20:55.227Z,69.40
2018-02-11T05:23:22.692Z,69.70
2018-02-11T05:25:50.149Z,70.60
2018-02-11T05:28:17.612Z,70.50
2018-02-11T05:30:45.094Z,71.00
2018-02-11T05:33:13.604Z,71.10
2018-02-11T05:35:41.066Z,71.00
2018-02-11T05:38:08.535Z,70.10
2018-02-11T05:40:36.006Z,70.60
2018-02-11T05:43:03.466Z,71.20
2018-02-11T05:45:30.931Z,71.40
2018-02-11T05:47:58.393Z,70.50
2018-02-11T05:50:25.848Z,70.70
2018-02-11T05:52:53.309Z,71.00
2018-02-11T05:55:21.026Z,70.50
2018-02-11T05:57:48.486Z,70.90
2018-02-11T06:00:15.956Z,70.90
2018-02-11T06:02:43.644Z,71.20
2018-02-11T06:05:11.102Z,71.00
2018-02-11T06:07:38.566Z,70.90
2018-02-11T06:10:06.808Z,70.80
2018-02-11T06:12:34.269Z,70.80
2018-02-11T06:15:01.747Z,70.70
2018-02-11T06:17:29.206Z,70.90
2018-02-11T06:19:56.679Z,70.90
2018-02-11T06:22:24.135Z,70.70
2018-02-11T06:24:51.606Z,70.80
2018-02-11T06:27:19.838Z,71.30
2018-02-11T06:29:47.298Z,71.20
2018-02-11T06:32:14.758Z,71.40
2018-02-11T06:34:42.217Z,71.00
2018-02-11T06:37:09.677Z,70.50
2018-02-11T06:39:37.167Z,70.50
2018-02-11T06:42:05.401Z,70.50
2018-02-11T06:44:32.865Z,70.30
2018-02-11T06:47:00.317Z,70.50
2018-02-11T06:49:27.791Z,70.30
2018-02-11T06:51:55.245Z,70.10
2018-02-11T06:54:22.715Z,70.10
2018-02-11T06:56:50.177Z,70.20
2018-02-11T06:59:18.397Z,70.00
2018-02-11T07:01:45.862Z,69.90
2018-02-11T07:04:13.329Z,70.00
2018-02-11T07:06:40.803Z,70.00
2018-02-11T07:09:08.278Z,69.70
2018-02-11T07:11:35.738Z,70.00
2018-02-11T07:14:03.985Z,69.30
2018-02-11T07:16:31.664Z,69.30
2018-02-11T07:18:59.126Z,69.30
2018-02-11T07:21:27.370Z,69.30
2018-02-11T07:23:54.834Z,69.30
2018-02-11T07:26:22.298Z,69.70
2018-02-11T07:28:49.890Z,68.70
2018-02-11T07:31:18.124Z,68.70
2018-02-11T07:33:45.582Z,68.70
2018-02-11T07:36:13.034Z,67.90
2018-02-11T07:38:40.499Z,67.60
2018-02-11T07:41:07.945Z,67.10
2018-02-11T07:43:35.415Z,67.00
2018-02-11T07:46:02.883Z,67.50
2018-02-11T07:48:30.337Z,67.60
2018-02-11T07:50:57.797Z,66.70
2018-02-11T07:53:25.261Z,66.80
2018-02-11T07:55:52.746Z,66.40
2018-02-11T07:58:20.209Z,65.80
2018-02-11T08:00:47.689Z,65.80
2018-02-11T08:03:15.158Z,65.00
2018-02-11T08:05:42.620Z,64.30
2018-02-11T08:08:10.082Z,64.10
2018-02-11T08:10:37.550Z,63.00
2018-02-11T08:13:05.275Z,62.60
2018-02-11T08:15:32.734Z,62.70
2018-02-11T08:18:00.228Z,63.00
2018-02-11T08:20:27.689Z,62.60
2018-02-11T08:22:55.144Z,61.90
2018-02-11T08:25:22.592Z,62.60
2018-02-11T08:27:50.051Z,61.80
2018-02-11T08:30:17.517Z,61.00
2018-02-11T08:32:45.233Z,60.50
2018-02-11T08:35:12.685Z,60.90
2018-02-11T08:37:40.154Z,60.50
2018-02-11T08:40:07.617Z,61.00
2018-02-11T08:42:35.081Z,60.10
2018-02-11T08:45:02.570Z,60.70
2018-02-11T08:47:30.035Z,60.00
2018-02-11T08:49:57.494Z,59.30
2018-02-11T08:52:24.959Z,58.30
2018-02-11T08:54:53.186Z,57.80
2018-02-11T08:57:20.649Z,57.80
2018-02-11T08:59:48.899Z,57.90
2018-02-11T09:02:16.375Z,57.90
2018-02-11T09:04:43.849Z,57.90
2018-02-11T09:07:11.301Z,58.00
2018-02-11T09:09:39.542Z,57.10
2018-02-11T09:12:07.017Z,57.10
2018-02-11T09:14:34.474Z,56.90
2018-02-11T09:17:01.937Z,57.00
2018-02-11T09:19:29.409Z,57.10
2018-02-11T09:21:56.878Z,56.80
2018-02-11T09:24:24.354Z,56.70
2018-02-11T09:26:52.584Z,57.10
2018-02-11T09:29:20.050Z,57.00
2018-02-11T09:31:47.514Z,56.60
2018-02-11T09:34:14.975Z,56.80
2018-02-11T09:36:42.459Z,57.20
2018-02-11T09:39:09.932Z,56.60
2018-02-11T09:41:37.402Z,56.90
2018-02-11T09:44:04.854Z,55.80
2018-02-11T09:46:32.323Z,56.10
2018-02-11T09:48:59.810Z,54.90
2018-02-11T09:51:27.273Z,54.70
2018-02-11T09:53:54.743Z,55.20
2018-02-11T09:56:22.203Z,55.10
2018-02-11T09:58:49.664Z,55.00
2018-02-11T10:01:17.148Z,54.80
2018-02-11T10:03:44.611Z,55.70
2018-02-11T10:06:12.077Z,54.70
2018-02-11T10:08:39.570Z,53.90
2018-02-11T10:11:07.038Z,52.90
2018-02-11T10:13:34.505Z,52.60
2018-02-11T10:16:01.965Z,51.40
2018-02-11T10:18:29.429Z,50.90
2018-02-11T10:20:57.653Z,52.60
2018-02-11T10:23:25.117Z,52.50
2018-02-11T10:25:52.595Z,51.80
2018-02-11T10:28:20.067Z,52.30
2018-02-11T10:30:47.530Z,51.70
2018-02-11T10:33:15.749Z,51.30
2018-02-11T10:35:43.225Z,51.20
2018-02-11T10:38:10.686Z,52.30
2018-02-11T10:40:38.164Z,52.00
2018-02-11T10:43:05.625Z,52.20
2018-02-11T10:45:33.090Z,53.00
2018-02-11T10:48:01.324Z,52.20
2018-02-11T10:50:28.785Z,52.20
2018-02-11T10:52:56.269Z,51.90
2018-02-11T10:55:23.732Z,51.20
2018-02-11T10:57:51.997Z,52.70
2018-02-11T11:00:19.477Z,52.10
2018-02-11T11:02:47.719Z,52.70
2018-02-11T11:05:15.185Z,52.80
2018-02-11T11:07:42.654Z,52.40
2018-02-11T11:10:10.116Z,52.20
2018-02-11T11:12:37.575Z,51.80
2018-02-11T11:15:05.841Z,52.10
2018-02-11T11:17:33.297Z,52.10
2018-02-11T11:20:01.553Z,51.20
2018-02-11T11:22:29.065Z,51.20
2018-02-11T11:24:56.554Z,51.60
2018-02-11T11:27:24.911Z,51.20
2018-02-11T11:29:52.405Z,50.60
2018-02-11T11:32:19.887Z,51.00
2018-02-11T11:34:47.361Z,50.90
2018-02-11T11:37:14.829Z,52.00
2018-02-11T11:39:42.292Z,51.30
2018-02-11T11:42:09.766Z,51.30
2018-02-11T11:44:37.228Z,50.60
2018-02-11T11:47:04.694Z,50.70
2018-02-11T11:49:32.145Z,50.20
2018-02-11T11:54:34.242Z,49.90
2018-02-11T11:57:01.714Z,49.90
2018-02-11T11:59:29.179Z,51.20
2018-02-11T12:01:56.666Z,51.80
2018-02-11T12:04:24.121Z,52.10
2018-02-11T12:06:51.581Z,50.40
2018-02-11T12:09:19.042Z,51.80
2018-02-11T12:11:46.537Z,51.30
2018-02-11T12:14:14.006Z,51.80
2018-02-11T12:16:41.492Z,51.70
2018-02-11T12:19:09.718Z,52.50
2018-02-11T12:21:37.177Z,52.40
2018-02-11T12:24:04.646Z,53.20
2018-02-11T12:26:32.118Z,53.70
2018-02-11T12:28:59.573Z,52.50
2018-02-11T12:31:27.062Z,52.60
2018-02-11T12:33:55.289Z,53.40
2018-02-11T12:36:22.751Z,53.30
2018-02-11T12:38:50.222Z,53.90
2018-02-11T12:41:17.694Z,53.50
2018-02-11T12:43:45.921Z,55.50
2018-02-11T12:46:13.394Z,55.50
2018-02-11T12:48:40.864Z,56.80
2018-02-11T12:51:08.322Z,57.70
2018-02-11T12:53:36.758Z,58.70
2018-02-11T12:56:04.287Z,59.20
2018-02-11T12:58:32.531Z,59.80
2018-02-11T13:01:00.010Z,59.70
2018-02-11T13:03:28.241Z,59.00
2018-02-11T13:05:55.705Z,59.00
2018-02-11T13:08:23.178Z,58.80
2018-02-11T13:10:50.640Z,58.10
2018-02-11T13:13:18.102Z,57.90
2018-02-11T13:15:45.558Z,58.20
2018-02-11T13:18:13.022Z,58.70
2018-02-11T13:20:41.193Z,58.60
2018-02-11T13:23:08.658Z,58.00
2018-02-11T13:25:36.877Z,58.50
2018-02-11T13:28:04.345Z,57.80
2018-02-11T13:30:31.820Z,58.00
2018-02-11T13:32:59.297Z,57.50
2018-02-11T13:35:26.772Z,57.90
2018-02-11T13:37:54.990Z,58.20
2018-02-11T13:40:22.461Z,58.20
2018-02-11T13:42:49.917Z,57.60
2018-02-11T13:45:17.391Z,58.00
2018-02-11T13:47:44.870Z,58.80
2018-02-11T13:50:13.097Z,59.10
2018-02-11T13:52:40.564Z,59.00
2018-02-11T13:55:08.025Z,59.60
2018-02-11T13:57:36.342Z,60.20
2018-02-11T14:00:03.819Z,61.20
2018-02-11T14:02:31.278Z,62.80
2018-02-11T14:04:58.745Z,64.20
2018-02-11T14:07:26.205Z,64.40
2018-02-11T14:09:54.442Z,64.80
2018-02-11T14:12:22.674Z,65.30
2018-02-11T14:14:50.140Z,65.20
2018-02-11T14:17:17.608Z,66.50
2018-02-11T14:19:45.325Z,68.00
2018-02-11T14:22:12.803Z,68.60
2018-02-11T14:24:40.257Z,69.20
2018-02-11T14:27:07.718Z,70.10
2018-02-11T14:29:35.192Z,69.80
2018-02-11T14:32:02.656Z,70.70
2018-02-11T14:34:30.131Z,70.30
2018-02-11T14:36:57.593Z,71.60
2018-02-11T14:39:25.874Z,72.90
2018-02-11T14:41:54.111Z,73.50
2018-02-11T14:44:21.570Z,73.50
2018-02-11T14:46:49.037Z,73.90
2018-02-11T14:49:16.504Z,74.70
2018-02-11T14:51:43.970Z,74.90
2018-02-11T14:54:12.214Z,75.60
2018-02-11T14:56:39.670Z,75.60
2018-02-11T14:59:07.908Z,76.70
2018-02-11T15:01:35.355Z,76.70
2018-02-11T15:04:02.834Z,76.40
2018-02-11T15:06:31.078Z,76.40
2018-02-11T15:08:59.318Z,76.70
2018-02-11T15:11:26.781Z,76.60
2018-02-11T15:13:54.237Z,77.00
2018-02-11T15:16:21.707Z,77.20
2018-02-11T15:18:49.159Z,76.70
2018-02-11T15:21:16.622Z,77.60
2018-02-11T15:23:44.868Z,78.00
2018-02-11T15:26:12.325Z,77.80
2018-02-11T15:28:39.776Z,77.50
2018-02-11T15:31:07.242Z,77.60
2018-02-11T15:33:34.709Z,78.00
2018-02-11T15:36:02.170Z,77.70
2018-02-11T15:38:29.621Z,78.20
2018-02-11T15:40:57.086Z,77.70
2018-02-11T15:43:24.565Z,77.80
2018-02-11T15:45:52.799Z,77.70
2018-02-11T15:48:20.260Z,77.70
2018-02-11T15:50:47.721Z,77.20
2018-02-11T15:53:15.185Z,77.50
2018-02-11T15:55:42.638Z,77.00
2018-02-11T15:58:10.124Z,77.40
2018-02-11T16:00:38.345Z,77.50
2018-02-11T16:03:05.995Z,77.50
2018-02-11T16:05:33.458Z,77.40
2018-02-11T16:08:00.913Z,77.60
2018-02-11T16:10:28.390Z,78.10
2018-02-11T16:12:55.837Z,78.10
2018-02-11T16:15:23.339Z,78.60
2018-02-11T16:17:50.775Z,78.60
2018-02-11T16:20:18.237Z,79.10
2018-02-11T16:22:45.705Z,78.90
2018-02-11T16:25:13.171Z,78.90
2018-02-11T16:27:41.388Z,79.30
2018-02-11T16:30:08.859Z,79.30
2018-02-11T16:32:42.222Z,79.80
2018-02-11T16:35:03.794Z,79.70
2018-02-11T16:37:31.267Z,79.10
2018-02-11T16:39:58.724Z,79.10
2018-02-11T16:42:26.425Z,79.60
2018-02-11T16:44:53.894Z,78.50
2018-02-11T16:47:21.362Z,78.80
2018-02-11T16:49:48.819Z,78.80
2018-02-11T16:52:16.352Z,79.20
2018-02-11T16:54:43.817Z,78.90
2018-02-11T16:57:11.286Z,78.70
2018-02-11T16:59:38.767Z,78.50
2018-02-11T17:02:06.221Z,78.50
2018-02-11T17:04:33.693Z,79.30
2018-02-11T17:07:01.178Z,79.80
2018-02-11T17:09:29.398Z,79.90
2018-02-11T17:11:56.860Z,79.80
2018-02-11T17:14:24.337Z,79.20
2018-02-11T17:16:51.793Z,79.80
2018-02-11T17:19:19.251Z,79.70
2018-02-11T17:21:46.712Z,79.90
2018-02-11T17:24:14.174Z,80.00
2018-02-11T17:26:41.636Z,79.80
2018-02-11T17:29:09.107Z,79.10
2018-02-11T17:31:37.346Z,79.70
2018-02-11T17:34:04.837Z,79.70
2018-02-11T17:36:33.062Z,79.70
2018-02-11T17:39:00.532Z,79.70
2018-02-11T17:41:27.982Z,79.40
2018-02-11T17:43:55.446Z,79.90
2018-02-11T17:46:23.686Z,80.00
2018-02-11T17:48:51.133Z,79.90
2018-02-11T17:51:18.597Z,80.00
2018-02-11T17:53:46.066Z,79.50
2018-02-11T17:56:13.525Z,79.90
2018-02-11T17:58:40.992Z,79.70
2018-02-11T18:01:08.449Z,80.00
2018-02-11T18:03:35.924Z,80.60
2018-02-11T18:06:03.368Z,80.40
2018-02-11T18:08:30.826Z,80.70
2018-02-11T18:10:58.291Z,80.50
2018-02-11T18:13:25.761Z,80.30
2018-02-11T18:15:53.226Z,79.90
2018-02-11T18:18:20.686Z,80.00
2018-02-11T18:20:48.929Z,79.80
2018-02-11T18:23:16.390Z,79.80
2018-02-11T18:25:43.886Z,80.40
2018-02-11T18:28:12.218Z,80.60
2018-02-11T18:30:39.677Z,80.50
2018-02-11T18:33:07.174Z,80.40
2018-02-11T18:35:35.390Z,80.50
2018-02-11T18:38:02.856Z,80.50
2018-02-11T18:40:30.344Z,80.90
2018-02-11T18:42:57.803Z,80.50
2018-02-11T18:45:25.262Z,81.00
2018-02-11T18:47:52.713Z,81.30
2018-02-11T18:50:20.194Z,81.30
2018-02-11T18:52:48.418Z,81.10
2018-02-11T18:55:15.869Z,81.00
2018-02-11T18:57:44.098Z,81.20
2018-02-11T19:00:12.321Z,81.20
2018-02-11T19:02:39.769Z,81.20
2018-02-11T19:05:07.234Z,81.50
2018-02-11T19:07:35.170Z,81.70
2018-02-11T19:10:03.405Z,81.40
2018-02-11T19:12:30.883Z,81.20
2018-02-11T19:14:58.354Z,81.00
2018-02-11T19:17:26.568Z,81.10
2018-02-11T19:19:54.030Z,81.00
2018-02-11T19:22:22.266Z,81.50
2018-02-11T19:24:50.491Z,82.10
2018-02-11T19:27:17.967Z,82.00
2018-02-11T19:29:46.197Z,81.60
2018-02-11T19:32:13.658Z,81.60
2018-02-11T19:34:41.126Z,81.60
2018-02-11T19:37:08.594Z,82.50
2018-02-11T19:39:36.054Z,82.30
2018-02-11T19:42:04.282Z,82.50
2018-02-11T19:44:31.747Z,82.50
2018-02-11T19:46:59.198Z,82.50
2018-02-11T19:49:26.677Z,81.80
2018-02-11T19:51:54.638Z,81.70
2018-02-11T19:54:22.109Z,81.80
2018-02-11T19:56:49.560Z,81.70
2018-02-11T19:59:17.051Z,81.70
2018-02-11T20:01:44.524Z,81.50
2018-02-11T20:04:11.986Z,81.60
2018-02-11T20:06:39.495Z,82.10
2018-02-11T20:09:06.971Z,81.40
2018-02-11T20:11:35.250Z,81.10
2018-02-11T20:14:02.734Z,81.10
2018-02-11T20:16:30.983Z,81.30
2018-02-11T20:18:58.466Z,81.30
2018-02-11T20:21:26.715Z,82.30
2018-02-11T20:23:54.202Z,82.20
2018-02-11T20:26:21.660Z,81.80
2018-02-11T20:28:49.896Z,82.40
2018-02-11T20:31:17.361Z,81.80
2018-02-11T20:33:44.829Z,82.80
2018-02-11T20:36:12.290Z,81.70
2018-02-11T20:38:39.751Z,82.20
2018-02-11T20:41:07.202Z,82.30
2018-02-11T20:43:34.669Z,82.00
2018-02-11T20:46:04.034Z,82.10
2018-02-11T20:48:31.585Z,82.10
2018-02-11T20:50:59.057Z,81.90
2018-02-11T20:53:26.516Z,82.10
2018-02-11T20:55:53.978Z,81.90
2018-02-11T20:58:21.440Z,81.80
2018-02-11T21:00:48.902Z,82.00
2018-02-11T21:03:16.373Z,82.00
2018-02-11T21:05:44.622Z,81.80
2018-02-11T21:08:12.066Z,81.80
2018-02-11T21:10:39.540Z,81.80
2018-02-11T21:13:07.021Z,82.00
2018-02-11T21:15:34.482Z,82.50
2018-02-11T21:18:02.750Z,82.40
2018-02-11T21:20:30.207Z,82.30
2018-02-11T21:22:58.454Z,82.30
2018-02-11T21:25:25.917Z,82.30
2018-02-11T21:27:53.396Z,82.30
2018-02-11T21:30:20.882Z,82.30
2018-02-11T21:32:48.361Z,82.60
2018-02-11T21:35:15.822Z,82.60
2018-02-11T21:37:43.290Z,82.60
2018-02-11T21:40:10.747Z,82.60
2018-02-11T21:42:38.218Z,82.80
2018-02-11T21:45:05.686Z,83.00
2018-02-11T21:47:33.502Z,82.90
2018-02-11T21:50:00.965Z,82.90
2018-02-11T21:52:28.729Z,82.90
2018-02-11T21:54:56.205Z,82.80
2018-02-11T21:57:24.446Z,82.60
2018-02-11T21:59:51.906Z,82.90
2018-02-11T22:02:19.750Z,83.30
2018-02-11T22:04:47.149Z,83.70
2018-02-11T22:07:14.599Z,83.80
2018-02-11T22:09:42.066Z,83.20
2018-02-11T22:12:09.513Z,82.90
2018-02-11T22:14:36.981Z,83.20
2018-02-11T22:17:04.443Z,83.10
2018-02-11T22:19:31.894Z,83.20
2018-02-11T22:21:59.357Z,83.30
2018-02-11T22:24:26.820Z,83.50
2018-02-11T22:26:54.290Z,83.50
2018-02-11T22:29:21.745Z,83.60
2018-02-11T22:31:49.213Z,84.00
2018-02-11T22:34:16.934Z,84.20
2018-02-11T22:36:44.389Z,83.90
2018-02-11T22:39:11.846Z,84.20
2018-02-11T22:41:39.300Z,84.00
2018-02-11T22:44:06.767Z,84.30
2018-02-11T22:46:34.214Z,84.40
2018-02-11T22:49:01.673Z,84.60
2018-02-11T22:51:29.126Z,84.90
2018-02-11T22:53:56.585Z,84.80
2018-02-11T22:56:24.034Z,84.80
2018-02-11T22:58:51.507Z,84.70
2018-02-11T23:01:19.016Z,84.70
2018-02-11T23:03:46.447Z,84.80
2018-02-11T23:06:13.895Z,84.90
2018-02-11T23:08:41.353Z,85.00
2018-02-11T23:11:08.802Z,84.80
2018-02-11T23:13:36.259Z,84.80
2018-02-11T23:16:03.721Z,84.70
2018-02-11T23:18:32.179Z,84.60
2018-02-11T23:20:59.638Z,84.60
2018-02-11T23:23:27.102Z,84.50
2018-02-11T23:25:54.557Z,84.70
2018-02-11T23:28:22.010Z,84.50
2018-02-11T23:30:49.485Z,84.20
2018-02-11T23:33:17.227Z,84.20
2018-02-11T23:35:44.686Z,84.00
2018-02-11T23:38:12.153Z,84.10
2018-02-11T23:40:39.614Z,83.70
2018-02-11T23:43:07.081Z,83.50
2018-02-11T23:45:34.528Z,83.50
2018-02-11T23:48:01.985Z,83.80
2018-02-11T23:50:29.730Z,83.90
2018-02-11T23:52:57.189Z,83.60
2018-02-11T23:55:24.646Z,83.60
2018-02-11T23:57:52.106Z,83.50
